LDZD

Zadar Airport

Airport
ICAO code
LDZD
IATA Code
ZAD
Summary
ICAO Region
EUR
ICAO Territory
Location

Zemunik Donji, Ravni Kotari

Serving
Zadar
Elevation
289 ft
Coordinates
44° 6' 1" N , 15° 21' 27" E
KCC
Csa
Metar
Observation
LDZD 081830Z 07014KT 040V110 9999 -RA FEW035 SCT040 BKN045 28/17 Q1016 NOSIG
Station
Zadar / Zemunik
Date/Time
2022-08-08 18:30:00
Wind direction
70°
Wind speed
14 kts
Lowest cloud amount
few clouds
Temperature
28°C
Dew point
17°C
Humidity
51%
QNH
1016 hPa
Weather condition
light rain

Zadar Airport is an international airport serving Zadar, Croatia

Climatology

Warm mediterranean climate (Köppen climate classification Csa)

Runways

Designator Length Width Surface Rops
4/22 2000 45 ASP Yes/Yes
14/32 2500 45 ASP Yes/Yes

Airport map

Aerial View

SKYbrary Partners:

Safety knowledge contributed by: